createdAt,value
2023-01-29T00:01:14.957Z,7.32
2023-01-29T00:03:31.925Z,8.23
2023-01-29T00:05:49.282Z,8.10
2023-01-29T00:08:06.217Z,6.97
2023-01-29T00:10:23.612Z,9.52
2023-01-29T00:12:40.790Z,7.28
2023-01-29T00:14:58.072Z,7.82
2023-01-29T00:17:15.535Z,8.25
2023-01-29T00:19:32.725Z,7.50
2023-01-29T00:21:49.849Z,8.68
2023-01-29T00:24:06.966Z,7.50
2023-01-29T00:26:24.036Z,8.40
2023-01-29T00:28:41.107Z,7.65
2023-01-29T00:30:58.295Z,7.75
2023-01-29T00:33:16.470Z,7.63
2023-01-29T00:35:33.786Z,8.63
2023-01-29T00:37:50.725Z,7.68
2023-01-29T00:40:08.070Z,8.27
2023-01-29T00:42:25.261Z,7.35
2023-01-29T00:44:42.287Z,9.02
2023-01-29T00:46:59.285Z,7.53
2023-01-29T00:49:17.169Z,9.20
2023-01-29T00:51:34.346Z,8.23
2023-01-29T00:53:51.625Z,7.25
2023-01-29T00:56:09.695Z,9.57
2023-01-29T00:58:26.861Z,8.20
2023-01-29T01:00:43.839Z,10.05
2023-01-29T01:03:01.202Z,8.18
2023-01-29T01:05:19.277Z,9.02
2023-01-29T01:07:36.440Z,7.57
2023-01-29T01:09:53.785Z,7.55
2023-01-29T01:12:12.229Z,9.85
2023-01-29T01:14:29.377Z,13.48
2023-01-29T01:16:46.358Z,10.15
2023-01-29T01:19:03.312Z,8.85
2023-01-29T01:21:20.699Z,9.70
2023-01-29T01:23:38.096Z,8.70
2023-01-29T01:25:56.514Z,9.80
2023-01-29T01:28:13.493Z,11.30
2023-01-29T01:30:30.997Z,8.98
2023-01-29T01:32:48.137Z,10.25
2023-01-29T01:35:06.207Z,10.88
2023-01-29T01:37:23.207Z,8.93
2023-01-29T01:39:41.237Z,9.85
2023-01-29T01:41:58.291Z,8.75
2023-01-29T01:44:16.603Z,11.32
2023-01-29T01:46:33.709Z,9.13
2023-01-29T01:48:50.724Z,9.73
2023-01-29T01:51:11.002Z,9.48
2023-01-29T01:53:28.232Z,11.57
2023-01-29T01:55:47.724Z,9.57
2023-01-29T01:58:04.876Z,8.52
2023-01-29T02:00:23.007Z,10.18
2023-01-29T02:02:40.199Z,10.73
2023-01-29T02:04:57.465Z,8.88
2023-01-29T02:07:14.533Z,8.48
2023-01-29T02:09:31.467Z,10.70
2023-01-29T02:11:49.445Z,9.27
2023-01-29T02:14:06.444Z,10.02
2023-01-29T02:16:24.179Z,8.55
2023-01-29T02:18:41.792Z,8.88
2023-01-29T02:20:58.916Z,9.20
2023-01-29T02:23:15.952Z,8.60
2023-01-29T02:25:34.056Z,8.15
2023-01-29T02:27:51.082Z,8.68
2023-01-29T02:30:08.159Z,8.35
2023-01-29T02:32:26.206Z,8.07
2023-01-29T02:34:43.315Z,9.90
2023-01-29T02:37:00.678Z,8.65
2023-01-29T02:39:17.727Z,9.98
2023-01-29T02:41:34.818Z,9.82
2023-01-29T02:43:51.775Z,9.57
2023-01-29T02:46:08.914Z,10.43
2023-01-29T02:48:26.976Z,9.55
2023-01-29T02:50:44.307Z,10.35
2023-01-29T02:53:01.696Z,8.90
2023-01-29T02:55:19.041Z,8.77
2023-01-29T02:57:36.011Z,8.93
2023-01-29T02:59:53.250Z,8.85
2023-01-29T03:02:11.719Z,9.80
2023-01-29T03:04:28.902Z,9.05
2023-01-29T03:06:46.048Z,8.02
2023-01-29T03:09:03.474Z,7.95
2023-01-29T03:11:23.866Z,9.60
2023-01-29T03:13:41.015Z,8.35
2023-01-29T03:15:58.137Z,7.93
2023-01-29T03:18:16.372Z,9.70
2023-01-29T03:20:33.450Z,8.43
2023-01-29T03:22:52.208Z,11.63
2023-01-29T03:25:09.384Z,8.30
2023-01-29T03:27:26.351Z,8.77
2023-01-29T03:29:43.361Z,7.22
2023-01-29T03:32:00.642Z,8.95
2023-01-29T03:34:17.574Z,9.40
2023-01-29T03:36:34.815Z,8.93
2023-01-29T03:38:51.874Z,9.68
2023-01-29T03:41:08.968Z,11.55
2023-01-29T03:43:26.277Z,10.38
2023-01-29T03:45:43.763Z,10.35
2023-01-29T03:48:02.037Z,9.77
2023-01-29T03:50:19.426Z,9.18
2023-01-29T03:52:36.499Z,10.20
2023-01-29T03:54:53.495Z,9.55
2023-01-29T03:57:10.533Z,9.23
2023-01-29T03:59:27.872Z,7.72
2023-01-29T04:01:44.983Z,8.82
2023-01-29T04:04:02.292Z,9.38
2023-01-29T04:06:20.610Z,9.68
2023-01-29T04:08:38.672Z,11.52
2023-01-29T04:10:56.736Z,10.15
2023-01-29T04:13:14.041Z,11.00
2023-01-29T04:15:30.948Z,8.52
2023-01-29T04:17:48.231Z,11.95
2023-01-29T04:20:05.211Z,10.20
2023-01-29T04:22:22.209Z,9.60
2023-01-29T04:24:39.190Z,10.65
2023-01-29T04:26:56.401Z,9.52
2023-01-29T04:29:13.490Z,10.20
2023-01-29T04:31:30.956Z,10.45
2023-01-29T04:33:49.086Z,9.48
2023-01-29T04:36:07.151Z,8.75
2023-01-29T04:38:24.506Z,9.13
2023-01-29T04:40:41.554Z,11.18
2023-01-29T04:42:58.554Z,10.15
2023-01-29T04:45:15.580Z,7.88
2023-01-29T04:47:32.729Z,8.35
2023-01-29T04:49:49.776Z,9.60
2023-01-29T04:52:06.823Z,8.27
2023-01-29T04:54:23.847Z,8.18
2023-01-29T04:56:40.920Z,8.93
2023-01-29T04:58:57.977Z,10.70
2023-01-29T05:01:15.262Z,10.18
2023-01-29T05:03:32.555Z,8.65
2023-01-29T05:05:50.649Z,10.32
2023-01-29T05:08:07.960Z,10.23
2023-01-29T05:10:25.043Z,8.63
2023-01-29T05:12:42.141Z,10.55
2023-01-29T05:14:59.428Z,9.75
2023-01-29T05:17:18.005Z,10.93
2023-01-29T05:19:34.941Z,10.88
2023-01-29T05:21:53.298Z,10.75
2023-01-29T05:24:10.690Z,9.13
2023-01-29T05:26:29.055Z,9.38
2023-01-29T05:28:46.166Z,10.65
2023-01-29T05:31:03.634Z,8.02
2023-01-29T05:33:21.132Z,10.35
2023-01-29T05:35:38.229Z,10.82
2023-01-29T05:37:55.551Z,9.40
2023-01-29T05:40:13.612Z,10.18
2023-01-29T05:42:30.950Z,10.68
2023-01-29T05:44:48.281Z,11.23
2023-01-29T05:47:06.407Z,10.95
2023-01-29T05:49:23.399Z,10.35
2023-01-29T05:51:40.360Z,11.70
2023-01-29T05:53:58.637Z,13.68
2023-01-29T05:56:16.912Z,10.60
2023-01-29T05:58:34.067Z,10.73
2023-01-29T06:00:51.429Z,11.00
2023-01-29T06:03:09.866Z,10.70
2023-01-29T06:05:27.991Z,11.95
2023-01-29T06:07:45.034Z,11.05
2023-01-29T06:10:02.327Z,10.60
2023-01-29T06:12:19.290Z,9.30
2023-01-29T06:14:37.593Z,11.38
2023-01-29T06:16:56.798Z,9.82
2023-01-29T06:19:13.989Z,12.98
2023-01-29T06:21:31.801Z,12.98
2023-01-29T06:23:48.907Z,11.13
2023-01-29T06:26:06.712Z,12.95
2023-01-29T06:28:23.790Z,12.32
2023-01-29T06:30:41.095Z,13.40
2023-01-29T06:32:58.173Z,11.65
2023-01-29T06:35:15.286Z,21.05
2023-01-29T06:37:32.677Z,18.33
2023-01-29T06:39:49.663Z,44.58
2023-01-29T06:42:06.945Z,49.45
2023-01-29T06:44:23.985Z,33.53
2023-01-29T06:46:41.209Z,34.38
2023-01-29T06:48:58.533Z,25.02
2023-01-29T06:51:15.606Z,13.02
2023-01-29T06:53:32.588Z,14.45
2023-01-29T06:55:50.479Z,11.73
2023-01-29T06:58:07.485Z,12.68
2023-01-29T07:00:24.525Z,14.07
2023-01-29T07:02:41.576Z,14.02
2023-01-29T07:04:58.912Z,15.82
2023-01-29T07:07:16.249Z,12.98
2023-01-29T07:09:33.545Z,13.30
2023-01-29T07:11:50.606Z,13.20
2023-01-29T07:14:07.665Z,13.48
2023-01-29T07:16:25.922Z,12.90
2023-01-29T07:18:43.028Z,13.63
2023-01-29T07:21:00.038Z,15.98
2023-01-29T07:23:17.083Z,12.48
2023-01-29T07:25:33.995Z,13.73
2023-01-29T07:27:51.068Z,12.27
2023-01-29T07:30:08.298Z,11.55
2023-01-29T07:32:25.355Z,12.98
2023-01-29T07:34:42.242Z,14.98
2023-01-29T07:36:59.313Z,13.68
2023-01-29T07:39:16.363Z,19.98
2023-01-29T07:41:33.390Z,18.63
2023-01-29T07:43:50.414Z,22.20
2023-01-29T07:46:07.494Z,33.30
2023-01-29T07:48:25.510Z,28.83
2023-01-29T07:50:42.790Z,23.42
2023-01-29T07:52:59.826Z,24.75
2023-01-29T07:55:16.899Z,15.35
2023-01-29T07:57:33.908Z,69.32
2023-01-29T07:59:50.998Z,56.83
2023-01-29T08:02:08.041Z,46.33
2023-01-29T08:04:25.433Z,36.45
2023-01-29T08:06:42.467Z,19.50
2023-01-29T08:08:59.768Z,15.55
2023-01-29T08:11:16.737Z,13.98
2023-01-29T08:13:34.576Z,12.98
2023-01-29T08:15:51.850Z,15.95
2023-01-29T08:18:08.933Z,11.13
2023-01-29T08:20:26.897Z,10.15
2023-01-29T08:22:44.163Z,11.10
2023-01-29T08:25:08.257Z,12.25
2023-01-29T08:27:25.540Z,16.58
2023-01-29T08:29:42.808Z,15.23
2023-01-29T08:31:59.902Z,11.27
2023-01-29T08:34:16.976Z,12.55
2023-01-29T08:36:35.012Z,11.45
2023-01-29T08:38:52.259Z,13.18
2023-01-29T08:41:09.215Z,12.48
2023-01-29T08:43:26.217Z,12.48
2023-01-29T08:45:43.316Z,10.48
2023-01-29T08:48:01.620Z,13.18
2023-01-29T08:50:18.851Z,11.60
2023-01-29T08:52:36.122Z,11.57
2023-01-29T08:54:53.405Z,14.07
2023-01-29T08:57:11.644Z,11.48
2023-01-29T08:59:28.668Z,12.80
2023-01-29T09:01:45.645Z,12.73
2023-01-29T09:04:02.873Z,12.32
2023-01-29T09:06:19.874Z,13.52
2023-01-29T09:08:37.843Z,12.10
2023-01-29T09:10:54.770Z,9.43
2023-01-29T09:13:11.713Z,11.52
2023-01-29T09:15:28.746Z,12.38
2023-01-29T09:17:45.782Z,11.65
2023-01-29T09:20:03.105Z,13.57
2023-01-29T09:22:20.445Z,12.43
2023-01-29T09:24:37.330Z,13.15
2023-01-29T09:26:54.290Z,13.88
2023-01-29T09:29:12.533Z,19.30
2023-01-29T09:31:29.950Z,16.45
2023-01-29T09:33:47.004Z,27.60
2023-01-29T09:36:04.095Z,15.00
2023-01-29T09:38:21.117Z,17.10
2023-01-29T09:40:38.159Z,19.02
2023-01-29T09:42:55.176Z,14.80
2023-01-29T09:45:18.277Z,19.77
2023-01-29T09:47:36.536Z,14.10
2023-01-29T09:49:53.586Z,17.23
2023-01-29T09:52:10.664Z,15.02
2023-01-29T09:54:27.977Z,13.18
2023-01-29T09:56:45.016Z,12.73
2023-01-29T09:59:02.174Z,15.48
2023-01-29T10:01:19.290Z,18.27
2023-01-29T10:03:36.750Z,12.25
2023-01-29T10:05:53.864Z,15.90
2023-01-29T10:08:11.000Z,15.85
2023-01-29T10:10:28.033Z,14.50
2023-01-29T10:12:45.010Z,17.48
2023-01-29T10:15:02.019Z,16.52
2023-01-29T10:17:19.492Z,15.88
2023-01-29T10:19:36.600Z,18.42
2023-01-29T10:21:53.985Z,21.52
2023-01-29T10:24:12.364Z,15.93
2023-01-29T10:26:29.769Z,17.42
2023-01-29T10:28:48.192Z,17.95
2023-01-29T10:31:05.346Z,19.15
2023-01-29T10:33:22.700Z,17.25
2023-01-29T10:35:40.619Z,15.55
2023-01-29T10:37:57.650Z,12.75
2023-01-29T10:40:14.721Z,16.42
2023-01-29T10:42:31.700Z,15.60
2023-01-29T10:44:48.929Z,16.30
2023-01-29T10:47:05.994Z,15.68
2023-01-29T10:49:23.027Z,18.20
2023-01-29T10:51:41.026Z,24.83
2023-01-29T10:53:58.388Z,15.32
2023-01-29T10:56:22.788Z,15.00
2023-01-29T10:58:40.468Z,24.10
2023-01-29T11:00:57.555Z,18.02
2023-01-29T11:03:26.456Z,13.38
2023-01-29T11:05:45.104Z,13.52
2023-01-29T11:08:03.122Z,13.10
2023-01-29T11:10:20.422Z,12.52
2023-01-29T11:12:37.353Z,11.57
2023-01-29T11:14:54.281Z,18.35
2023-01-29T11:17:11.223Z,15.13
2023-01-29T11:19:28.548Z,13.23
2023-01-29T11:21:45.686Z,13.07
2023-01-29T11:24:02.720Z,20.05
2023-01-29T11:26:20.059Z,22.55
2023-01-29T11:28:37.089Z,16.17
2023-01-29T11:30:55.124Z,13.05
2023-01-29T11:33:12.103Z,14.93
2023-01-29T11:35:29.107Z,37.25
2023-01-29T11:37:46.376Z,20.88
2023-01-29T11:40:03.754Z,13.20
2023-01-29T11:42:20.816Z,12.88
2023-01-29T11:44:37.746Z,20.05
2023-01-29T11:46:54.828Z,58.28
2023-01-29T11:49:20.586Z,19.88
2023-01-29T11:51:37.717Z,17.17
2023-01-29T11:53:54.872Z,15.25
2023-01-29T11:56:12.029Z,14.55
2023-01-29T11:58:29.105Z,12.07
2023-01-29T12:00:49.029Z,14.32
2023-01-29T12:03:06.022Z,14.35
2023-01-29T12:05:24.247Z,14.35
2023-01-29T12:07:41.467Z,13.43
2023-01-29T12:09:58.538Z,19.50
2023-01-29T12:12:16.079Z,38.40
2023-01-29T12:14:33.210Z,18.90
2023-01-29T12:16:50.196Z,17.20
2023-01-29T12:19:08.161Z,12.25
2023-01-29T12:21:25.118Z,46.78
2023-01-29T12:23:42.126Z,29.55
2023-01-29T12:26:01.107Z,27.85
2023-01-29T12:28:18.029Z,39.78
2023-01-29T12:30:35.114Z,32.05
2023-01-29T12:32:52.219Z,29.58
2023-01-29T12:35:10.639Z,38.25
2023-01-29T12:37:27.656Z,67.13
2023-01-29T12:39:44.711Z,22.73
2023-01-29T12:42:02.095Z,33.50
2023-01-29T12:44:20.182Z,34.42
2023-01-29T12:46:37.210Z,31.15
2023-01-29T12:48:55.489Z,20.50
2023-01-29T12:51:12.483Z,12.07
2023-01-29T12:53:29.659Z,12.27
2023-01-29T12:55:46.625Z,12.48
2023-01-29T12:58:03.501Z,11.07
2023-01-29T13:00:21.105Z,17.52
2023-01-29T13:02:40.502Z,53.15
2023-01-29T13:04:57.582Z,41.80
2023-01-29T13:07:14.534Z,27.83
2023-01-29T13:09:31.982Z,21.60
2023-01-29T13:11:49.111Z,14.30
2023-01-29T13:14:09.651Z,11.73
2023-01-29T13:16:30.003Z,9.90
2023-01-29T13:18:47.023Z,11.10
2023-01-29T13:21:04.481Z,10.73
2023-01-29T13:23:21.515Z,9.75
2023-01-29T13:25:38.929Z,10.48
2023-01-29T13:27:57.290Z,12.00
2023-01-29T13:30:14.468Z,9.70
2023-01-29T13:32:31.528Z,14.10
2023-01-29T13:34:48.565Z,12.23
2023-01-29T13:37:05.703Z,10.63
2023-01-29T13:39:23.061Z,13.23
2023-01-29T13:41:40.096Z,11.80
2023-01-29T13:43:58.825Z,9.15
2023-01-29T13:46:16.852Z,11.32
2023-01-29T13:48:33.841Z,9.65
2023-01-29T13:50:50.794Z,9.60
2023-01-29T13:53:08.017Z,9.70
2023-01-29T13:55:26.301Z,9.57
2023-01-29T13:57:43.668Z,9.38
2023-01-29T14:00:00.746Z,10.57
2023-01-29T14:02:17.986Z,9.48
2023-01-29T14:04:35.029Z,8.98
2023-01-29T14:06:52.855Z,9.35
2023-01-29T14:09:10.895Z,10.05
2023-01-29T14:11:28.199Z,9.75
2023-01-29T14:13:45.377Z,8.75
2023-01-29T14:16:02.624Z,8.88
2023-01-29T14:18:19.665Z,9.13
2023-01-29T14:20:45.919Z,9.20
2023-01-29T14:23:04.290Z,10.25
2023-01-29T14:25:21.351Z,11.02
2023-01-29T14:27:38.594Z,10.40
2023-01-29T14:29:55.512Z,10.55
2023-01-29T14:32:12.511Z,10.07
2023-01-29T14:34:29.569Z,8.82
2023-01-29T14:36:46.798Z,9.85
2023-01-29T14:39:03.851Z,10.13
2023-01-29T14:41:22.076Z,9.93
2023-01-29T14:43:39.120Z,9.30
2023-01-29T14:45:56.107Z,9.00
2023-01-29T14:48:13.372Z,9.82
2023-01-29T14:50:33.011Z,11.25
2023-01-29T14:52:50.357Z,8.93
2023-01-29T14:55:08.380Z,9.50
2023-01-29T14:57:25.735Z,11.88
2023-01-29T14:59:44.139Z,9.13
2023-01-29T15:02:01.206Z,10.32
2023-01-29T15:04:19.235Z,9.23
2023-01-29T15:06:36.548Z,9.27
2023-01-29T15:08:53.561Z,9.18
2023-01-29T15:11:10.576Z,11.05
2023-01-29T15:13:27.870Z,9.65
2023-01-29T15:15:44.815Z,11.73
2023-01-29T15:18:01.842Z,13.90
2023-01-29T15:20:18.777Z,9.38
2023-01-29T15:22:35.727Z,10.73
2023-01-29T15:24:52.747Z,9.73
2023-01-29T15:27:10.020Z,11.75
2023-01-29T15:29:27.126Z,9.75
2023-01-29T15:31:46.312Z,11.55
2023-01-29T15:34:03.996Z,11.00
2023-01-29T15:36:20.999Z,11.40
2023-01-29T15:38:38.201Z,11.88
2023-01-29T15:40:55.452Z,9.40
2023-01-29T15:43:12.460Z,11.13
2023-01-29T15:45:29.498Z,9.93
2023-01-29T15:47:46.585Z,11.93
2023-01-29T15:50:04.588Z,14.95
2023-01-29T15:52:21.673Z,11.30
2023-01-29T15:54:38.620Z,11.07
2023-01-29T15:56:55.666Z,10.90
2023-01-29T15:59:12.682Z,11.77
2023-01-29T16:01:29.696Z,10.57
2023-01-29T16:03:46.660Z,12.95
2023-01-29T16:06:04.000Z,10.45
2023-01-29T16:08:21.013Z,8.85
2023-01-29T16:10:37.938Z,12.27
2023-01-29T16:12:54.933Z,9.98
2023-01-29T16:15:12.216Z,11.57
2023-01-29T16:17:29.240Z,11.50
2023-01-29T16:19:46.242Z,11.77
2023-01-29T16:22:04.477Z,11.38
2023-01-29T16:24:21.424Z,11.60
2023-01-29T16:26:38.709Z,24.20
2023-01-29T16:28:55.765Z,42.53
2023-01-29T16:31:12.847Z,51.97
2023-01-29T16:33:30.251Z,55.65
2023-01-29T16:35:47.212Z,50.75
2023-01-29T16:38:04.331Z,42.40
2023-01-29T16:40:21.384Z,32.67
2023-01-29T16:42:38.636Z,29.63
2023-01-29T16:44:56.818Z,24.95
2023-01-29T16:47:13.885Z,23.15
2023-01-29T16:49:32.241Z,22.20
2023-01-29T16:51:49.331Z,21.80
2023-01-29T16:54:06.260Z,28.58
2023-01-29T16:56:23.582Z,24.92
2023-01-29T16:58:40.565Z,21.80
2023-01-29T17:00:57.922Z,21.60
2023-01-29T17:03:14.935Z,19.00
2023-01-29T17:05:31.929Z,19.55
2023-01-29T17:07:49.041Z,18.35
2023-01-29T17:10:06.105Z,18.00
2023-01-29T17:12:23.092Z,14.70
2023-01-29T17:14:40.432Z,17.15
2023-01-29T17:16:57.738Z,17.75
2023-01-29T17:19:14.845Z,18.60
2023-01-29T17:21:31.907Z,17.88
2023-01-29T17:23:49.142Z,21.17
2023-01-29T17:26:06.407Z,18.52
2023-01-29T17:28:23.656Z,19.67
2023-01-29T17:30:41.040Z,20.13
2023-01-29T17:32:58.042Z,20.65
2023-01-29T17:35:15.628Z,20.42
2023-01-29T17:37:33.285Z,22.02
2023-01-29T17:39:51.271Z,21.05
2023-01-29T17:42:08.214Z,20.98
2023-01-29T17:44:25.177Z,19.63
2023-01-29T17:46:42.286Z,20.10
2023-01-29T17:48:59.220Z,20.02
2023-01-29T17:51:16.456Z,17.83
2023-01-29T17:53:44.809Z,18.00
2023-01-29T17:56:03.175Z,18.60
2023-01-29T17:58:20.181Z,19.20
2023-01-29T18:00:38.163Z,18.20
2023-01-29T18:02:55.170Z,20.45
2023-01-29T18:05:12.437Z,21.90
2023-01-29T18:07:29.464Z,22.67
2023-01-29T18:09:46.803Z,18.92
2023-01-29T18:12:04.809Z,20.65
2023-01-29T18:14:21.923Z,19.60
2023-01-29T18:16:39.819Z,21.75
2023-01-29T18:18:58.168Z,19.40
2023-01-29T18:21:16.162Z,20.13
2023-01-29T18:23:33.263Z,22.20
2023-01-29T18:25:50.560Z,21.13
2023-01-29T18:28:08.539Z,17.80
2023-01-29T18:30:25.578Z,21.85
2023-01-29T18:32:42.692Z,20.98
2023-01-29T18:35:00.670Z,21.98
2023-01-29T18:37:17.678Z,20.08
2023-01-29T18:39:35.649Z,23.25
2023-01-29T18:41:53.618Z,23.27
2023-01-29T18:44:10.886Z,20.23
2023-01-29T18:46:28.307Z,20.58
2023-01-29T18:48:46.304Z,22.15
2023-01-29T18:51:03.608Z,20.90
2023-01-29T18:53:20.690Z,21.83
2023-01-29T18:55:38.914Z,22.70
2023-01-29T18:58:27.523Z,22.10
2023-01-29T19:00:32.970Z,24.48
2023-01-29T19:02:50.610Z,24.92
2023-01-29T19:05:07.685Z,24.45
2023-01-29T19:07:24.594Z,27.05
2023-01-29T19:09:41.761Z,26.10
2023-01-29T19:11:58.978Z,26.23
2023-01-29T19:14:16.201Z,26.23
2023-01-29T19:16:34.421Z,26.92
2023-01-29T19:18:51.479Z,24.35
2023-01-29T19:21:08.548Z,27.13
2023-01-29T19:23:25.853Z,24.88
2023-01-29T19:25:43.913Z,24.88
2023-01-29T19:28:00.910Z,23.58
2023-01-29T19:30:18.050Z,27.55
2023-01-29T19:32:35.152Z,25.95
2023-01-29T19:34:52.222Z,24.63
2023-01-29T19:37:09.509Z,26.63
2023-01-29T19:39:28.942Z,26.30
2023-01-29T19:41:46.617Z,25.45
2023-01-29T19:44:03.679Z,25.75
2023-01-29T19:46:20.778Z,31.75
2023-01-29T19:48:38.617Z,28.67
2023-01-29T19:50:55.903Z,31.70
2023-01-29T19:53:12.936Z,30.33
2023-01-29T19:55:29.888Z,30.50
2023-01-29T19:57:46.766Z,31.05
2023-01-29T20:00:04.053Z,33.95
2023-01-29T20:02:21.299Z,34.30
2023-01-29T20:04:38.346Z,32.90
2023-01-29T20:06:55.347Z,32.95
2023-01-29T20:09:12.422Z,34.40
2023-01-29T20:11:29.483Z,35.25
2023-01-29T20:13:46.569Z,31.08
2023-01-29T20:16:04.107Z,29.67
2023-01-29T20:18:21.394Z,31.80
2023-01-29T20:20:38.638Z,31.77
2023-01-29T20:22:55.683Z,28.55
2023-01-29T20:25:12.968Z,29.63
2023-01-29T20:27:30.217Z,32.33
2023-01-29T20:29:47.928Z,31.73
2023-01-29T20:32:05.018Z,31.25
2023-01-29T20:34:22.297Z,32.15
2023-01-29T20:36:39.305Z,32.30
2023-01-29T20:38:56.286Z,30.10
2023-01-29T20:41:13.683Z,34.10
2023-01-29T20:43:30.765Z,31.45
2023-01-29T20:45:47.928Z,32.33
2023-01-29T20:48:05.246Z,33.65
2023-01-29T20:50:22.561Z,36.25
2023-01-29T20:52:40.565Z,33.58
2023-01-29T20:54:57.766Z,29.77
2023-01-29T20:57:16.223Z,30.83
2023-01-29T20:59:33.314Z,32.05
2023-01-29T21:01:50.663Z,32.90
2023-01-29T21:04:07.981Z,33.95
2023-01-29T21:06:25.085Z,32.85
2023-01-29T21:08:42.361Z,31.83
2023-01-29T21:11:01.766Z,32.22
2023-01-29T21:13:18.751Z,33.33
2023-01-29T21:15:36.049Z,32.80
2023-01-29T21:17:53.422Z,33.67
2023-01-29T21:20:10.676Z,39.72
2023-01-29T21:22:28.760Z,38.63
2023-01-29T21:24:46.730Z,38.50
2023-01-29T21:27:03.778Z,35.72
2023-01-29T21:29:21.007Z,38.33
2023-01-29T21:31:40.652Z,35.28
2023-01-29T21:33:57.944Z,39.85
2023-01-29T21:36:15.229Z,38.42
2023-01-29T21:38:32.474Z,34.50
2023-01-29T21:40:49.439Z,35.53
2023-01-29T21:43:07.487Z,38.30
2023-01-29T21:45:24.844Z,38.42
2023-01-29T21:47:42.775Z,34.97
2023-01-29T21:49:59.812Z,40.80
2023-01-29T21:52:16.852Z,40.60
2023-01-29T21:54:35.196Z,40.95
2023-01-29T21:56:53.169Z,40.38
2023-01-29T21:59:10.146Z,41.60
2023-01-29T22:01:36.476Z,41.65
2023-01-29T22:03:55.174Z,41.58
2023-01-29T22:06:12.198Z,38.25
2023-01-29T22:08:29.072Z,39.65
2023-01-29T22:10:47.014Z,40.78
2023-01-29T22:13:04.259Z,38.58
2023-01-29T22:15:23.597Z,39.17
2023-01-29T22:17:41.211Z,41.63
2023-01-29T22:19:58.315Z,39.10
2023-01-29T22:22:16.321Z,39.95
2023-01-29T22:24:33.390Z,39.83
2023-01-29T22:26:50.540Z,42.22
2023-01-29T22:29:07.861Z,45.13
2023-01-29T22:31:24.942Z,39.95
2023-01-29T22:33:41.986Z,42.97
2023-01-29T22:35:58.915Z,43.67
2023-01-29T22:38:15.855Z,46.83
2023-01-29T22:40:34.106Z,41.40
2023-01-29T22:42:51.059Z,38.88
2023-01-29T22:45:08.137Z,42.00
2023-01-29T22:47:25.062Z,38.65
2023-01-29T22:49:43.338Z,37.75
2023-01-29T22:52:00.689Z,41.20
2023-01-29T22:54:18.403Z,41.28
2023-01-29T22:56:36.617Z,41.80
2023-01-29T22:58:53.729Z,42.25
2023-01-29T23:01:11.053Z,40.00
2023-01-29T23:03:28.084Z,42.17
2023-01-29T23:05:45.389Z,41.60
2023-01-29T23:08:02.977Z,38.22
2023-01-29T23:10:20.083Z,42.17
2023-01-29T23:12:37.154Z,41.83
2023-01-29T23:14:54.066Z,37.10
2023-01-29T23:17:12.318Z,42.60
2023-01-29T23:19:29.299Z,40.78
2023-01-29T23:21:46.601Z,41.05
2023-01-29T23:24:03.891Z,41.78
2023-01-29T23:26:22.064Z,40.72
2023-01-29T23:28:39.092Z,37.65
2023-01-29T23:30:56.473Z,37.53
2023-01-29T23:33:14.072Z,40.20
2023-01-29T23:35:31.173Z,41.17
2023-01-29T23:37:48.505Z,39.55
2023-01-29T23:40:05.757Z,38.17
2023-01-29T23:42:22.708Z,42.22
2023-01-29T23:44:40.121Z,40.90
2023-01-29T23:46:57.435Z,41.75
2023-01-29T23:49:14.693Z,39.78
2023-01-29T23:51:35.052Z,43.38
2023-01-29T23:53:52.309Z,42.15
2023-01-29T23:56:09.358Z,41.05
2023-01-29T23:58:26.391Z,44.58
